Rawlins, WY

7:41 AM MDT on September 16, 2014 (GMT -0600)
Rawlins Municipal | Change Station
CLOSE
Current Station
Airport
Location: Rawlins,
Elevation: 6814 ft
Nearby Weather Stations

Elev 6814 ft 41.81 °N, 107.20 °W | Updated 48 minutes ago

Clear
Clear
44 °F
Feels Like 44 °F
N
0
Wind Variable Wind from North

Today
High -- | Low -- °F
--% Chance of Precip.
Yesterday
High -- | Low -- °F
Precip. -- in
6:50 AM 7:16 PM
Last Quarter, 45% visible
Pressure 30.09 in
Visibility 10.0 miles
Clouds Clear
Dew Point 32 °F
Humidity 63%
Rainfall 0.00 in
Snow Depth 0 in , 0 in , 2 in
UV 0 out of 12
Pollen 6.40 out of 12
Air Quality Not available.
Flu Activity Not available.
METAR KRWL 161253Z AUTO 00000KT 10SM CLR 07/00 A3030 RMK AO2 SLP189 T00670000

More Conditions Fewer Conditions

Pressure 30.09 in
Visibility 10.0 miles
Clouds Clear
Dew Point 32 °F
Humidity 63%
Rainfall 0.00 in
Snow Depth 0 in , 0 in , 2 in
UV 0 out of 12
Pollen 6.40 out of 12
Air Quality Not available.
Flu Activity Not available.
METAR KRWL 161253Z AUTO 00000KT 10SM CLR 07/00 A3030 RMK AO2 SLP189 T00670000

More Conditions Fewer Conditions

10-Day Weather Forecast

Almanac

Astronomy

Sep. 16, 2014 Rise Set
Actual Time 6:50 AM MDT 7:16 PM MDT
Civil Twilight 6:22 AM MDT 7:44 PM MDT
Nautical Twilight 5:49 AM MDT 8:17 PM MDT
Astronomical Twilight 5:15 AM MDT 8:50 PM MDT
Moon No Moon Rise 2:46 PM MDT
Length of Visible Light 13h 22m
Length of Day
12h 26m
Tomorrow will be 2m 46s shorter.
Last Quarter, 45% of the Moon is Illuminated
Today
Last Quarter
Sep 24
New
Oct 1
First Quarter
Oct 8
Full
Oct 15
Last Quarter

Today's Extremes

State Highs State Lows

Community

WunderPhotos

Upload Photos

1,753,774 photos uploaded!

Nearby

Snow Depth

Station Depth Elevation
Cole Canyon 0 in 5910 ft
Sylvan Road 0 in 7120 ft
Blind Bull Summit 2 in 8900 ft
Hams Fork 0 in 7840 ft
Cinnabar Park 1 in 9690 ft

Earthquake Activity

City Distance Mag. Time & Date
No recent earthquake activity has been reported nearby.
Minimum magnitude displayed is 2.5.

Coastal Water Temperatures

Place Temperature
No Stations Reporting

Nearby Weather Stations